sensor_id;sensor_type;location;lat;lon;timestamp;P1;P2;P0
21358;PMS7003;13506;50.852;20.632;2023-04-10T00:02:01;45.40;35.20;21.40
21358;PMS7003;13506;50.852;20.632;2023-04-10T00:04:29;32.00;28.20;16.80
21358;PMS7003;13506;50.852;20.632;2023-04-10T00:06:58;41.80;37.40;20.40
21358;PMS7003;13506;50.852;20.632;2023-04-10T00:09:25;37.60;30.40;19.80
21358;PMS7003;13506;50.852;20.632;2023-04-10T00:11:54;37.40;31.20;19.60
21358;PMS7003;13506;50.852;20.632;2023-04-10T00:14:23;34.80;32.20;19.40
21358;PMS7003;13506;50.852;20.632;2023-04-10T00:16:51;48.60;36.40;20.60
21358;PMS7003;13506;50.852;20.632;2023-04-10T00:19:19;33.60;33.60;18.40
21358;PMS7003;13506;50.852;20.632;2023-04-10T00:21:47;55.75;44.75;27.00
21358;PMS7003;13506;50.852;20.632;2023-04-10T00:24:15;75.75;59.50;36.25
21358;PMS7003;13506;50.852;20.632;2023-04-10T00:26:43;44.60;41.40;26.80
21358;PMS7003;13506;50.852;20.632;2023-04-10T00:29:11;51.80;41.60;25.80
21358;PMS7003;13506;50.852;20.632;2023-04-10T00:31:40;42.00;36.80;22.40
21358;PMS7003;13506;50.852;20.632;2023-04-10T00:34:08;41.20;38.60;22.60
21358;PMS7003;13506;50.852;20.632;2023-04-10T00:36:36;36.80;31.40;20.00
21358;PMS7003;13506;50.852;20.632;2023-04-10T00:39:04;42.60;35.80;23.00
21358;PMS7003;13506;50.852;20.632;2023-04-10T00:41:33;40.80;36.60;22.80
21358;PMS7003;13506;50.852;20.632;2023-04-10T00:44:01;46.60;40.20;24.00
21358;PMS7003;13506;50.852;20.632;2023-04-10T00:46:29;42.20;32.60;20.80
21358;PMS7003;13506;50.852;20.632;2023-04-10T00:49:01;40.00;34.60;21.60
21358;PMS7003;13506;50.852;20.632;2023-04-10T00:51:29;47.40;38.00;23.60
21358;PMS7003;13506;50.852;20.632;2023-04-10T00:53:57;39.80;33.80;21.40
21358;PMS7003;13506;50.852;20.632;2023-04-10T00:56:28;40.00;30.20;19.40
21358;PMS7003;13506;50.852;20.632;2023-04-10T00:58:57;41.60;36.40;20.80
21358;PMS7003;13506;50.852;20.632;2023-04-10T01:01:27;42.00;37.80;23.60
21358;PMS7003;13506;50.852;20.632;2023-04-10T01:03:55;41.00;36.20;22.60
21358;PMS7003;13506;50.852;20.632;2023-04-10T01:06:29;42.00;35.60;23.40
21358;PMS7003;13506;50.852;20.632;2023-04-10T01:09:14;44.20;34.20;21.00
21358;PMS7003;13506;50.852;20.632;2023-04-10T01:11:51;27.40;22.40;16.00
21358;PMS7003;13506;50.852;20.632;2023-04-10T01:14:26;40.80;34.20;20.60
21358;PMS7003;13506;50.852;20.632;2023-04-10T01:17:03;39.40;34.00;20.20
21358;PMS7003;13506;50.852;20.632;2023-04-10T01:22:37;45.20;39.60;24.80
21358;PMS7003;13506;50.852;20.632;2023-04-10T01:28:15;35.40;31.00;19.80
21358;PMS7003;13506;50.852;20.632;2023-04-10T01:31:04;41.40;33.60;22.00
21358;PMS7003;13506;50.852;20.632;2023-04-10T01:33:37;40.80;34.40;20.20
21358;PMS7003;13506;50.852;20.632;2023-04-10T01:36:24;60.20;46.60;29.40
21358;PMS7003;13506;50.852;20.632;2023-04-10T01:38:57;41.40;37.20;22.00
21358;PMS7003;13506;50.852;20.632;2023-04-10T01:41:25;43.40;38.40;22.40
21358;PMS7003;13506;50.852;20.632;2023-04-10T01:43:56;39.40;31.20;21.20
21358;PMS7003;13506;50.852;20.632;2023-04-10T01:46:27;38.75;34.50;19.50
21358;PMS7003;13506;50.852;20.632;2023-04-10T01:48:56;46.00;38.00;24.00
21358;PMS7003;13506;50.852;20.632;2023-04-10T01:51:28;38.40;36.20;21.00
21358;PMS7003;13506;50.852;20.632;2023-04-10T01:54:01;34.60;29.80;20.00
21358;PMS7003;13506;50.852;20.632;2023-04-10T01:56:31;38.20;35.20;20.20
21358;PMS7003;13506;50.852;20.632;2023-04-10T01:59:00;35.60;33.60;18.80
21358;PMS7003;13506;50.852;20.632;2023-04-10T02:01:31;37.20;33.00;19.40
21358;PMS7003;13506;50.852;20.632;2023-04-10T02:04:00;49.60;41.40;22.40
21358;PMS7003;13506;50.852;20.632;2023-04-10T02:06:33;42.80;35.20;22.20
21358;PMS7003;13506;50.852;20.632;2023-04-10T02:09:11;44.20;38.00;21.60
21358;PMS7003;13506;50.852;20.632;2023-04-10T02:11:46;45.60;41.60;23.40
21358;PMS7003;13506;50.852;20.632;2023-04-10T02:14:21;39.60;32.80;20.20
21358;PMS7003;13506;50.852;20.632;2023-04-10T02:16:55;37.40;33.80;18.60
21358;PMS7003;13506;50.852;20.632;2023-04-10T02:19:25;44.60;36.80;23.80
21358;PMS7003;13506;50.852;20.632;2023-04-10T02:21:54;37.20;32.40;21.00
21358;PMS7003;13506;50.852;20.632;2023-04-10T02:24:25;40.60;37.40;22.20
21358;PMS7003;13506;50.852;20.632;2023-04-10T02:26:54;37.20;37.20;21.60
21358;PMS7003;13506;50.852;20.632;2023-04-10T02:29:22;41.80;38.60;22.40
21358;PMS7003;13506;50.852;20.632;2023-04-10T02:31:51;50.20;41.40;23.40
21358;PMS7003;13506;50.852;20.632;2023-04-10T02:34:20;41.80;38.40;22.80
21358;PMS7003;13506;50.852;20.632;2023-04-10T02:36:48;43.40;40.20;23.60
21358;PMS7003;13506;50.852;20.632;2023-04-10T02:39:17;51.60;44.00;25.80
21358;PMS7003;13506;50.852;20.632;2023-04-10T02:41:49;52.00;43.20;25.80
21358;PMS7003;13506;50.852;20.632;2023-04-10T02:44:17;59.80;45.80;27.00
21358;PMS7003;13506;50.852;20.632;2023-04-10T02:46:45;58.60;47.20;28.60
21358;PMS7003;13506;50.852;20.632;2023-04-10T02:49:13;56.80;43.80;25.60
21358;PMS7003;13506;50.852;20.632;2023-04-10T02:51:44;52.75;43.25;26.50
21358;PMS7003;13506;50.852;20.632;2023-04-10T02:54:12;46.40;41.20;23.80
21358;PMS7003;13506;50.852;20.632;2023-04-10T02:56:41;44.60;38.40;24.40
21358;PMS7003;13506;50.852;20.632;2023-04-10T02:59:10;55.60;44.20;29.00
21358;PMS7003;13506;50.852;20.632;2023-04-10T03:01:38;50.80;45.40;27.20
21358;PMS7003;13506;50.852;20.632;2023-04-10T03:04:07;48.40;42.00;25.60
21358;PMS7003;13506;50.852;20.632;2023-04-10T03:06:37;52.80;45.20;28.60
21358;PMS7003;13506;50.852;20.632;2023-04-10T03:09:07;57.00;47.25;31.50
21358;PMS7003;13506;50.852;20.632;2023-04-10T03:11:35;56.20;46.20;27.60
21358;PMS7003;13506;50.852;20.632;2023-04-10T03:14:03;52.00;41.40;26.00
21358;PMS7003;13506;50.852;20.632;2023-04-10T03:16:31;56.20;46.80;29.00
21358;PMS7003;13506;50.852;20.632;2023-04-10T03:19:02;54.75;44.25;27.75
21358;PMS7003;13506;50.852;20.632;2023-04-10T03:21:30;49.80;44.00;29.00
21358;PMS7003;13506;50.852;20.632;2023-04-10T03:23:58;55.20;47.40;29.00
21358;PMS7003;13506;50.852;20.632;2023-04-10T03:26:28;57.25;46.00;29.50
21358;PMS7003;13506;50.852;20.632;2023-04-10T03:28:56;58.75;47.00;29.75
21358;PMS7003;13506;50.852;20.632;2023-04-10T03:31:24;49.60;42.60;24.00
21358;PMS7003;13506;50.852;20.632;2023-04-10T03:33:56;47.00;39.60;23.60
21358;PMS7003;13506;50.852;20.632;2023-04-10T03:36:24;43.60;38.00;24.00
21358;PMS7003;13506;50.852;20.632;2023-04-10T03:38:53;45.80;40.40;25.00
21358;PMS7003;13506;50.852;20.632;2023-04-10T03:41:21;48.80;40.40;22.00
21358;PMS7003;13506;50.852;20.632;2023-04-10T03:43:52;53.40;43.00;24.60
21358;PMS7003;13506;50.852;20.632;2023-04-10T03:46:20;41.00;35.60;20.80
21358;PMS7003;13506;50.852;20.632;2023-04-10T03:48:49;40.60;35.40;20.00
21358;PMS7003;13506;50.852;20.632;2023-04-10T03:51:19;46.20;37.20;23.40
21358;PMS7003;13506;50.852;20.632;2023-04-10T03:53:49;51.00;43.80;23.80
21358;PMS7003;13506;50.852;20.632;2023-04-10T03:56:17;56.80;44.80;23.80
21358;PMS7003;13506;50.852;20.632;2023-04-10T03:58:46;45.20;39.40;21.60
21358;PMS7003;13506;50.852;20.632;2023-04-10T04:01:15;56.20;47.00;26.40
21358;PMS7003;13506;50.852;20.632;2023-04-10T04:03:56;58.25;44.50;28.50
21358;PMS7003;13506;50.852;20.632;2023-04-10T04:06:42;42.40;37.20;20.20
21358;PMS7003;13506;50.852;20.632;2023-04-10T04:09:23;54.00;41.00;23.80
21358;PMS7003;13506;50.852;20.632;2023-04-10T04:12:02;50.40;42.40;23.60
21358;PMS7003;13506;50.852;20.632;2023-04-10T04:14:57;40.60;37.80;19.80
21358;PMS7003;13506;50.852;20.632;2023-04-10T04:17:45;42.80;37.20;23.20
21358;PMS7003;13506;50.852;20.632;2023-04-10T04:20:33;42.20;36.40;20.60
21358;PMS7003;13506;50.852;20.632;2023-04-10T04:23:14;52.60;42.00;21.60
21358;PMS7003;13506;50.852;20.632;2023-04-10T04:26:02;53.00;43.80;24.00
21358;PMS7003;13506;50.852;20.632;2023-04-10T04:28:33;40.20;32.00;17.40
21358;PMS7003;13506;50.852;20.632;2023-04-10T04:31:19;47.20;37.00;21.40
21358;PMS7003;13506;50.852;20.632;2023-04-10T04:34:08;42.20;33.00;19.80
21358;PMS7003;13506;50.852;20.632;2023-04-10T04:36:39;39.00;35.40;19.80
21358;PMS7003;13506;50.852;20.632;2023-04-10T04:39:25;41.60;32.40;19.00
21358;PMS7003;13506;50.852;20.632;2023-04-10T04:42:12;46.60;33.80;22.00
21358;PMS7003;13506;50.852;20.632;2023-04-10T04:45:01;39.80;32.80;18.00
21358;PMS7003;13506;50.852;20.632;2023-04-10T04:47:50;41.00;32.40;16.20
21358;PMS7003;13506;50.852;20.632;2023-04-10T04:50:41;42.40;34.80;22.60
21358;PMS7003;13506;50.852;20.632;2023-04-10T04:53:28;33.20;28.40;15.80
21358;PMS7003;13506;50.852;20.632;2023-04-10T04:56:08;43.20;35.00;20.40
21358;PMS7003;13506;50.852;20.632;2023-04-10T04:58:36;40.20;32.80;19.20
21358;PMS7003;13506;50.852;20.632;2023-04-10T05:01:11;35.40;27.00;16.60
21358;PMS7003;13506;50.852;20.632;2023-04-10T05:04:05;34.60;31.40;19.40
21358;PMS7003;13506;50.852;20.632;2023-04-10T05:06:53;42.60;34.20;20.00
21358;PMS7003;13506;50.852;20.632;2023-04-10T05:09:47;37.60;30.80;20.00
21358;PMS7003;13506;50.852;20.632;2023-04-10T05:12:34;41.00;32.40;17.60
21358;PMS7003;13506;50.852;20.632;2023-04-10T05:15:22;37.80;30.00;19.00
21358;PMS7003;13506;50.852;20.632;2023-04-10T05:18:08;45.60;33.00;18.00
21358;PMS7003;13506;50.852;20.632;2023-04-10T05:20:57;32.40;29.20;16.00
21358;PMS7003;13506;50.852;20.632;2023-04-10T05:24:01;36.20;27.40;16.20
21358;PMS7003;13506;50.852;20.632;2023-04-10T05:26:48;34.20;29.00;17.40
21358;PMS7003;13506;50.852;20.632;2023-04-10T05:29:28;35.20;33.40;20.20
21358;PMS7003;13506;50.852;20.632;2023-04-10T05:32:10;34.20;27.60;16.00
21358;PMS7003;13506;50.852;20.632;2023-04-10T05:34:52;38.40;35.80;21.80
21358;PMS7003;13506;50.852;20.632;2023-04-10T05:37:31;36.20;31.80;17.80
21358;PMS7003;13506;50.852;20.632;2023-04-10T05:40:26;42.60;36.00;19.80
21358;PMS7003;13506;50.852;20.632;2023-04-10T05:43:07;32.20;31.80;17.00
21358;PMS7003;13506;50.852;20.632;2023-04-10T05:45:54;36.40;27.40;15.00
21358;PMS7003;13506;50.852;20.632;2023-04-10T05:48:40;30.40;22.20;13.60
21358;PMS7003;13506;50.852;20.632;2023-04-10T05:51:19;23.80;21.20;11.60
21358;PMS7003;13506;50.852;20.632;2023-04-10T05:54:11;28.00;26.00;12.60
21358;PMS7003;13506;50.852;20.632;2023-04-10T05:57:00;27.80;25.20;13.60
21358;PMS7003;13506;50.852;20.632;2023-04-10T05:59:40;34.20;30.40;17.80
21358;PMS7003;13506;50.852;20.632;2023-04-10T06:02:39;35.40;28.60;16.80
21358;PMS7003;13506;50.852;20.632;2023-04-10T06:05:13;39.80;33.80;17.40
21358;PMS7003;13506;50.852;20.632;2023-04-10T06:07:42;37.60;33.60;19.00
21358;PMS7003;13506;50.852;20.632;2023-04-10T06:10:10;36.60;31.20;17.20
21358;PMS7003;13506;50.852;20.632;2023-04-10T06:12:39;30.20;26.00;16.20
21358;PMS7003;13506;50.852;20.632;2023-04-10T06:15:09;41.25;32.50;20.00
21358;PMS7003;13506;50.852;20.632;2023-04-10T06:17:40;35.00;30.00;16.80
21358;PMS7003;13506;50.852;20.632;2023-04-10T06:20:09;28.60;23.80;15.40
21358;PMS7003;13506;50.852;20.632;2023-04-10T06:22:37;38.40;32.00;17.20
21358;PMS7003;13506;50.852;20.632;2023-04-10T06:25:06;27.20;22.60;14.60
21358;PMS7003;13506;50.852;20.632;2023-04-10T06:27:34;37.00;30.60;18.20
21358;PMS7003;13506;50.852;20.632;2023-04-10T06:30:08;37.00;29.40;17.80
21358;PMS7003;13506;50.852;20.632;2023-04-10T06:32:36;45.00;34.80;22.80
21358;PMS7003;13506;50.852;20.632;2023-04-10T06:35:05;29.80;28.00;15.60
21358;PMS7003;13506;50.852;20.632;2023-04-10T06:37:34;38.80;34.40;19.00
21358;PMS7003;13506;50.852;20.632;2023-04-10T06:40:04;35.40;30.60;17.00
21358;PMS7003;13506;50.852;20.632;2023-04-10T06:42:33;36.20;30.80;19.60
21358;PMS7003;13506;50.852;20.632;2023-04-10T06:45:09;40.00;37.00;19.20
21358;PMS7003;13506;50.852;20.632;2023-04-10T06:47:37;32.20;28.20;18.60
21358;PMS7003;13506;50.852;20.632;2023-04-10T06:50:05;34.60;28.80;15.00
21358;PMS7003;13506;50.852;20.632;2023-04-10T06:52:34;40.20;31.40;17.00
21358;PMS7003;13506;50.852;20.632;2023-04-10T06:55:02;32.60;25.20;15.40
21358;PMS7003;13506;50.852;20.632;2023-04-10T06:57:31;26.80;24.80;15.20
21358;PMS7003;13506;50.852;20.632;2023-04-10T06:59:59;37.60;31.80;18.20
21358;PMS7003;13506;50.852;20.632;2023-04-10T07:02:28;38.60;29.80;17.00
21358;PMS7003;13506;50.852;20.632;2023-04-10T07:04:56;27.60;23.60;12.60
21358;PMS7003;13506;50.852;20.632;2023-04-10T07:07:24;25.40;23.80;13.80
21358;PMS7003;13506;50.852;20.632;2023-04-10T07:09:53;33.20;27.20;15.60
21358;PMS7003;13506;50.852;20.632;2023-04-10T07:12:22;25.40;23.00;12.60
21358;PMS7003;13506;50.852;20.632;2023-04-10T07:14:51;29.00;26.00;16.00
21358;PMS7003;13506;50.852;20.632;2023-04-10T07:17:20;31.40;23.40;13.20
21358;PMS7003;13506;50.852;20.632;2023-04-10T07:19:49;29.00;23.20;13.80
21358;PMS7003;13506;50.852;20.632;2023-04-10T07:22:17;29.80;27.00;12.80
21358;PMS7003;13506;50.852;20.632;2023-04-10T07:24:45;24.40;23.00;12.80
21358;PMS7003;13506;50.852;20.632;2023-04-10T07:27:14;33.00;27.40;16.60
21358;PMS7003;13506;50.852;20.632;2023-04-10T07:29:42;27.60;24.60;14.40
21358;PMS7003;13506;50.852;20.632;2023-04-10T07:32:10;27.40;25.80;16.80
21358;PMS7003;13506;50.852;20.632;2023-04-10T07:34:38;30.60;27.20;14.00
21358;PMS7003;13506;50.852;20.632;2023-04-10T07:37:07;28.20;24.40;13.60
21358;PMS7003;13506;50.852;20.632;2023-04-10T07:39:36;24.80;22.80;13.00
21358;PMS7003;13506;50.852;20.632;2023-04-10T07:42:03;21.40;20.60;12.40
21358;PMS7003;13506;50.852;20.632;2023-04-10T07:44:31;30.40;26.60;14.60
21358;PMS7003;13506;50.852;20.632;2023-04-10T07:46:59;36.60;29.00;17.20
21358;PMS7003;13506;50.852;20.632;2023-04-10T07:49:28;31.00;22.80;12.20
21358;PMS7003;13506;50.852;20.632;2023-04-10T07:51:56;24.40;19.80;12.00
21358;PMS7003;13506;50.852;20.632;2023-04-10T07:54:26;23.80;21.40;13.20
21358;PMS7003;13506;50.852;20.632;2023-04-10T07:56:57;30.00;25.40;14.00
21358;PMS7003;13506;50.852;20.632;2023-04-10T07:59:25;26.40;24.40;14.60
21358;PMS7003;13506;50.852;20.632;2023-04-10T08:01:53;26.20;22.20;14.60
21358;PMS7003;13506;50.852;20.632;2023-04-10T08:04:21;25.00;25.00;16.20
21358;PMS7003;13506;50.852;20.632;2023-04-10T08:06:49;28.00;23.40;14.80
21358;PMS7003;13506;50.852;20.632;2023-04-10T08:09:17;25.40;22.00;13.40
21358;PMS7003;13506;50.852;20.632;2023-04-10T08:11:47;22.40;19.20;11.80
21358;PMS7003;13506;50.852;20.632;2023-04-10T08:14:15;25.80;20.60;12.40
21358;PMS7003;13506;50.852;20.632;2023-04-10T08:16:42;23.60;21.20;13.00
21358;PMS7003;13506;50.852;20.632;2023-04-10T08:19:11;19.00;18.40;9.40
21358;PMS7003;13506;50.852;20.632;2023-04-10T08:21:38;20.20;20.20;11.60
21358;PMS7003;13506;50.852;20.632;2023-04-10T08:24:07;17.40;16.80;9.20
21358;PMS7003;13506;50.852;20.632;2023-04-10T08:26:35;22.00;18.60;11.80
21358;PMS7003;13506;50.852;20.632;2023-04-10T08:29:04;20.20;17.00;10.80
21358;PMS7003;13506;50.852;20.632;2023-04-10T08:31:32;18.80;18.60;11.20
21358;PMS7003;13506;50.852;20.632;2023-04-10T08:34:00;19.20;16.60;10.60
21358;PMS7003;13506;50.852;20.632;2023-04-10T08:36:29;21.20;17.20;10.60
21358;PMS7003;13506;50.852;20.632;2023-04-10T08:38:58;18.80;18.40;10.00
21358;PMS7003;13506;50.852;20.632;2023-04-10T08:41:25;20.20;17.80;11.00
21358;PMS7003;13506;50.852;20.632;2023-04-10T08:43:55;18.80;18.00;10.80
21358;PMS7003;13506;50.852;20.632;2023-04-10T08:46:24;27.20;19.20;11.20
21358;PMS7003;13506;50.852;20.632;2023-04-10T08:48:54;18.80;18.60;10.80
21358;PMS7003;13506;50.852;20.632;2023-04-10T08:51:28;24.60;20.20;12.00
21358;PMS7003;13506;50.852;20.632;2023-04-10T08:54:03;25.80;23.00;12.00
21358;PMS7003;13506;50.852;20.632;2023-04-10T08:56:34;19.80;18.00;12.40
21358;PMS7003;13506;50.852;20.632;2023-04-10T08:59:03;17.80;16.20;8.40
21358;PMS7003;13506;50.852;20.632;2023-04-10T09:01:34;19.40;17.80;9.20
21358;PMS7003;13506;50.852;20.632;2023-04-10T09:04:03;18.60;16.60;9.00
21358;PMS7003;13506;50.852;20.632;2023-04-10T09:06:32;20.80;17.40;8.40
21358;PMS7003;13506;50.852;20.632;2023-04-10T09:09:00;18.60;16.60;10.00
21358;PMS7003;13506;50.852;20.632;2023-04-10T09:14:25;12.50;11.75;7.00
21358;PMS7003;13506;50.852;20.632;2023-04-10T09:17:09;10.80;9.40;5.80
21358;PMS7003;13506;50.852;20.632;2023-04-10T09:19:39;12.00;12.00;7.00
21358;PMS7003;13506;50.852;20.632;2023-04-10T09:22:08;10.00;8.20;4.00
21358;PMS7003;13506;50.852;20.632;2023-04-10T09:24:37;14.60;11.40;6.80
21358;PMS7003;13506;50.852;20.632;2023-04-10T09:27:06;10.00;9.60;7.00
21358;PMS7003;13506;50.852;20.632;2023-04-10T09:29:40;10.00;10.00;5.80
21358;PMS7003;13506;50.852;20.632;2023-04-10T09:32:11;11.80;10.00;5.00
21358;PMS7003;13506;50.852;20.632;2023-04-10T09:34:50;9.00;9.00;4.80
21358;PMS7003;13506;50.852;20.632;2023-04-10T09:37:19;8.20;8.20;4.00
21358;PMS7003;13506;50.852;20.632;2023-04-10T09:39:47;9.40;8.60;4.40
21358;PMS7003;13506;50.852;20.632;2023-04-10T09:42:15;10.80;9.00;4.20
21358;PMS7003;13506;50.852;20.632;2023-04-10T09:44:59;11.00;10.00;4.00
21358;PMS7003;13506;50.852;20.632;2023-04-10T09:47:29;11.00;10.20;7.20
21358;PMS7003;13506;50.852;20.632;2023-04-10T09:49:58;12.20;11.20;5.80
21358;PMS7003;13506;50.852;20.632;2023-04-10T09:52:26;10.20;9.20;5.40
21358;PMS7003;13506;50.852;20.632;2023-04-10T09:54:56;13.60;9.20;5.00
21358;PMS7003;13506;50.852;20.632;2023-04-10T09:57:26;7.80;7.80;4.80
21358;PMS7003;13506;50.852;20.632;2023-04-10T09:59:55;9.60;9.00;4.00
21358;PMS7003;13506;50.852;20.632;2023-04-10T10:02:24;10.60;10.60;5.20
21358;PMS7003;13506;50.852;20.632;2023-04-10T10:04:56;12.80;10.60;5.40
21358;PMS7003;13506;50.852;20.632;2023-04-10T10:07:26;9.75;9.50;4.50
21358;PMS7003;13506;50.852;20.632;2023-04-10T10:09:55;11.25;9.50;5.00
21358;PMS7003;13506;50.852;20.632;2023-04-10T10:12:25;9.20;8.00;4.00
21358;PMS7003;13506;50.852;20.632;2023-04-10T10:15:00;8.60;8.60;4.00
21358;PMS7003;13506;50.852;20.632;2023-04-10T10:17:33;8.80;8.80;4.80
21358;PMS7003;13506;50.852;20.632;2023-04-10T10:20:09;10.40;10.40;5.00
21358;PMS7003;13506;50.852;20.632;2023-04-10T10:22:38;11.00;8.80;4.00
21358;PMS7003;13506;50.852;20.632;2023-04-10T10:25:08;12.40;10.60;6.00
21358;PMS7003;13506;50.852;20.632;2023-04-10T10:27:36;14.40;13.60;7.40
21358;PMS7003;13506;50.852;20.632;2023-04-10T10:30:06;11.80;10.00;5.80
21358;PMS7003;13506;50.852;20.632;2023-04-10T10:32:36;10.20;9.00;5.40
21358;PMS7003;13506;50.852;20.632;2023-04-10T10:35:05;13.80;12.60;7.00
21358;PMS7003;13506;50.852;20.632;2023-04-10T10:37:35;17.40;17.20;10.40
21358;PMS7003;13506;50.852;20.632;2023-04-10T10:40:05;25.60;22.00;13.20
21358;PMS7003;13506;50.852;20.632;2023-04-10T10:42:41;11.60;10.00;5.00
21358;PMS7003;13506;50.852;20.632;2023-04-10T10:45:14;10.00;7.00;4.00
21358;PMS7003;13506;50.852;20.632;2023-04-10T10:47:45;13.40;11.80;6.00
21358;PMS7003;13506;50.852;20.632;2023-04-10T10:50:16;14.00;11.00;6.00
21358;PMS7003;13506;50.852;20.632;2023-04-10T10:52:45;11.00;11.00;6.20
21358;PMS7003;13506;50.852;20.632;2023-04-10T10:55:28;12.40;9.40;5.40
21358;PMS7003;13506;50.852;20.632;2023-04-10T10:58:00;13.00;12.80;7.00
21358;PMS7003;13506;50.852;20.632;2023-04-10T11:03:32;10.20;10.00;5.20
21358;PMS7003;13506;50.852;20.632;2023-04-10T11:06:05;13.80;10.80;5.80
21358;PMS7003;13506;50.852;20.632;2023-04-10T11:08:35;14.00;12.40;7.60
21358;PMS7003;13506;50.852;20.632;2023-04-10T11:11:09;11.40;11.00;7.00
21358;PMS7003;13506;50.852;20.632;2023-04-10T11:13:40;13.80;13.40;8.20
21358;PMS7003;13506;50.852;20.632;2023-04-10T11:19:08;12.00;12.00;7.20
21358;PMS7003;13506;50.852;20.632;2023-04-10T11:24:55;18.60;17.80;11.40
21358;PMS7003;13506;50.852;20.632;2023-04-10T11:27:44;16.80;15.80;8.80
21358;PMS7003;13506;50.852;20.632;2023-04-10T11:30:27;13.80;13.20;7.40
21358;PMS7003;13506;50.852;20.632;2023-04-10T11:32:56;12.40;12.00;6.40
21358;PMS7003;13506;50.852;20.632;2023-04-10T11:35:25;14.00;13.00;8.20
21358;PMS7003;13506;50.852;20.632;2023-04-10T11:38:09;14.60;14.60;10.00
21358;PMS7003;13506;50.852;20.632;2023-04-10T11:40:51;15.80;15.00;7.40
21358;PMS7003;13506;50.852;20.632;2023-04-10T11:43:20;13.40;13.40;7.00
21358;PMS7003;13506;50.852;20.632;2023-04-10T11:45:48;12.80;12.80;7.00
21358;PMS7003;13506;50.852;20.632;2023-04-10T11:48:24;15.60;13.40;7.60
21358;PMS7003;13506;50.852;20.632;2023-04-10T11:50:54;13.20;12.40;8.00
21358;PMS7003;13506;50.852;20.632;2023-04-10T11:53:23;17.20;15.00;7.80
21358;PMS7003;13506;50.852;20.632;2023-04-10T11:55:51;13.60;11.00;5.80
21358;PMS7003;13506;50.852;20.632;2023-04-10T11:58:20;10.00;10.00;5.80
21358;PMS7003;13506;50.852;20.632;2023-04-10T12:00:59;13.00;12.20;7.00
21358;PMS7003;13506;50.852;20.632;2023-04-10T12:03:32;16.60;12.40;8.20
21358;PMS7003;13506;50.852;20.632;2023-04-10T12:06:05;13.20;12.00;6.80
21358;PMS7003;13506;50.852;20.632;2023-04-10T12:08:37;11.20;10.20;6.00
21358;PMS7003;13506;50.852;20.632;2023-04-10T12:11:07;22.60;17.80;12.00
21358;PMS7003;13506;50.852;20.632;2023-04-10T12:13:36;15.80;14.00;8.40
21358;PMS7003;13506;50.852;20.632;2023-04-10T12:16:05;13.80;13.00;8.00
21358;PMS7003;13506;50.852;20.632;2023-04-10T12:18:35;11.80;11.80;7.00
21358;PMS7003;13506;50.852;20.632;2023-04-10T12:21:03;10.00;10.00;5.20
21358;PMS7003;13506;50.852;20.632;2023-04-10T12:23:34;9.20;8.60;4.60
21358;PMS7003;13506;50.852;20.632;2023-04-10T12:26:05;9.40;8.60;4.00
21358;PMS7003;13506;50.852;20.632;2023-04-10T12:28:36;9.80;9.00;4.80
21358;PMS7003;13506;50.852;20.632;2023-04-10T12:31:05;11.00;9.20;4.60
21358;PMS7003;13506;50.852;20.632;2023-04-10T12:33:34;8.80;8.80;4.20
21358;PMS7003;13506;50.852;20.632;2023-04-10T12:36:02;10.20;9.20;5.00
21358;PMS7003;13506;50.852;20.632;2023-04-10T12:38:34;12.00;10.00;5.60
21358;PMS7003;13506;50.852;20.632;2023-04-10T12:41:04;10.60;10.60;6.00
21358;PMS7003;13506;50.852;20.632;2023-04-10T12:43:34;12.20;11.00;6.40
21358;PMS7003;13506;50.852;20.632;2023-04-10T12:46:04;10.60;10.20;5.00
21358;PMS7003;13506;50.852;20.632;2023-04-10T12:48:33;12.60;12.40;7.00
21358;PMS7003;13506;50.852;20.632;2023-04-10T12:51:01;10.80;10.80;5.80
21358;PMS7003;13506;50.852;20.632;2023-04-10T12:53:30;11.60;11.60;6.00
21358;PMS7003;13506;50.852;20.632;2023-04-10T12:56:09;11.60;11.40;7.00
21358;PMS7003;13506;50.852;20.632;2023-04-10T12:58:39;12.40;11.40;6.40
21358;PMS7003;13506;50.852;20.632;2023-04-10T13:01:07;13.40;11.20;6.80
21358;PMS7003;13506;50.852;20.632;2023-04-10T13:03:36;10.60;9.00;4.80
21358;PMS7003;13506;50.852;20.632;2023-04-10T13:06:04;16.00;13.40;8.20
21358;PMS7003;13506;50.852;20.632;2023-04-10T13:08:33;21.20;19.00;11.80
21358;PMS7003;13506;50.852;20.632;2023-04-10T13:11:01;13.00;13.00;8.40
21358;PMS7003;13506;50.852;20.632;2023-04-10T13:13:31;10.20;10.20;6.00
21358;PMS7003;13506;50.852;20.632;2023-04-10T13:15:59;11.00;10.60;5.00
21358;PMS7003;13506;50.852;20.632;2023-04-10T13:18:27;14.00;12.00;5.80
21358;PMS7003;13506;50.852;20.632;2023-04-10T13:20:55;12.40;11.80;6.40
21358;PMS7003;13506;50.852;20.632;2023-04-10T13:23:23;12.60;12.60;7.20
21358;PMS7003;13506;50.852;20.632;2023-04-10T13:25:51;12.40;12.40;5.60
21358;PMS7003;13506;50.852;20.632;2023-04-10T13:28:21;10.40;10.40;5.60
21358;PMS7003;13506;50.852;20.632;2023-04-10T13:30:50;10.80;9.60;5.00
21358;PMS7003;13506;50.852;20.632;2023-04-10T13:33:19;10.00;9.60;6.00
21358;PMS7003;13506;50.852;20.632;2023-04-10T13:35:46;11.40;10.00;4.80
21358;PMS7003;13506;50.852;20.632;2023-04-10T13:38:14;10.00;10.00;5.00
21358;PMS7003;13506;50.852;20.632;2023-04-10T13:40:42;10.40;10.40;6.00
21358;PMS7003;13506;50.852;20.632;2023-04-10T13:43:10;11.80;10.20;6.00
21358;PMS7003;13506;50.852;20.632;2023-04-10T13:45:38;10.00;10.00;6.00
21358;PMS7003;13506;50.852;20.632;2023-04-10T13:48:08;10.00;10.00;4.40
21358;PMS7003;13506;50.852;20.632;2023-04-10T13:50:36;5.00;5.00;3.00
21358;PMS7003;13506;50.852;20.632;2023-04-10T13:53:05;5.00;5.00;3.00
21358;PMS7003;13506;50.852;20.632;2023-04-10T13:55:34;8.80;6.80;3.00
21358;PMS7003;13506;50.852;20.632;2023-04-10T13:58:03;7.25;7.25;3.25
21358;PMS7003;13506;50.852;20.632;2023-04-10T14:00:31;8.40;8.40;4.00
21358;PMS7003;13506;50.852;20.632;2023-04-10T14:02:59;6.80;6.80;4.00
21358;PMS7003;13506;50.852;20.632;2023-04-10T14:05:28;9.60;9.60;5.00
21358;PMS7003;13506;50.852;20.632;2023-04-10T14:07:56;9.40;9.00;4.20
21358;PMS7003;13506;50.852;20.632;2023-04-10T14:10:24;31.40;28.20;18.40
21358;PMS7003;13506;50.852;20.632;2023-04-10T14:12:52;18.00;16.00;11.00
21358;PMS7003;13506;50.852;20.632;2023-04-10T14:15:20;14.00;11.80;6.20
21358;PMS7003;13506;50.852;20.632;2023-04-10T14:17:49;12.60;11.60;6.80
21358;PMS7003;13506;50.852;20.632;2023-04-10T14:20:17;9.80;9.80;6.00
21358;PMS7003;13506;50.852;20.632;2023-04-10T14:22:46;11.20;11.00;5.40
21358;PMS7003;13506;50.852;20.632;2023-04-10T14:25:14;9.00;9.00;4.60
21358;PMS7003;13506;50.852;20.632;2023-04-10T14:27:43;11.80;10.20;5.00